Lake Buena Vista, Florida
Current Conditions -  °F | °C
As of 10:50 AM on Saturday 25 Oct 2014 (Local Time) from KISM Reporting Station
Clear Clear  
Wind Chill: 73°   Ceiling: Unl
Heat Index: 73°   Visibility: 10mi
Dew Point: 50°   Wind: 8mph
Humidity: 44%   Direction: 360°N
Pressure: 30.01"   Gusts: NA
Location:  28.37°N, 81.52°W
Report Text: KISM 251450Z 36007KT 10SM SKC 23/10 A3001
Loading
Personal Weather Stations






























Interactive Weather Map
Tropical Storm Tracking
New forecast layout! Learn more

10-Day Weather Forecast

Advertisements
Track Severe Weather on mobile